Time;durP1;ratioP1;P1;durP2;ratioP2;P2;SDS_P1;SDS_P2;PMS_P1;PMS_P2;Temp;Humidity;BMP_temperature;BMP_pressure;BME280_temperature;BME280_humidity;BME280_pressure;Samples;Min_cycle;Max_cycle;Signal;HPM_P1;HPM_P2
2021/01/03 00:00:57;;;;;;;27.30;21.53;;;;;;;8.04;59.75;101646.38;6116621;29;20513;-71
2021/01/03 00:04:18;;;;;;;30.53;20.57;;;;;;;8.03;59.74;101658.47;6120023;29;20231;-71
2021/01/03 00:07:38;;;;;;;29.90;21.53;;;;;;;8.05;59.93;101659.38;6123927;29;20235;-70
2021/01/03 00:10:59;;;;;;;29.27;23.00;;;;;;;8.07;60.08;101660.25;6123040;29;20235;-71
2021/01/03 00:14:22;;;;;;;29.50;21.10;;;;;;;8.07;59.99;101655.06;6124642;29;20236;-71
2021/01/03 00:17:43;;;;;;;29.40;22.00;;;;;;;8.09;59.65;101653.38;6116744;29;20546;-71
2021/01/03 00:21:04;;;;;;;29.70;22.57;;;;;;;8.00;60.07;101665.34;6123681;29;20258;-69
2021/01/03 00:24:25;;;;;;;32.83;23.47;;;;;;;7.89;60.15;101660.88;6121609;29;20232;-71
2021/01/03 00:27:46;;;;;;;33.70;25.00;;;;;;;7.91;60.24;101655.72;6116825;29;20236;-70
2021/01/03 00:31:07;;;;;;;35.47;25.60;;;;;;;7.91;60.47;101662.59;6121796;29;20240;-71
2021/01/03 00:34:29;;;;;;;35.50;25.83;;;;;;;7.71;60.67;101665.75;6112031;29;20232;-70
2021/01/03 00:37:49;;;;;;;37.97;27.17;;;;;;;7.81;60.73;101670.25;6121542;29;20602;-70
2021/01/03 00:41:10;;;;;;;34.10;26.13;;;;;;;7.65;61.46;101669.09;6121563;29;20239;-70
2021/01/03 00:44:31;;;;;;;36.13;25.83;;;;;;;7.80;60.88;101667.63;6119404;29;20220;-70
2021/01/03 00:47:52;;;;;;;40.43;28.40;;;;;;;7.75;60.83;101675.31;6121339;29;20306;-71
2021/01/03 00:51:12;;;;;;;41.67;29.10;;;;;;;7.91;60.45;101668.69;6111917;29;20619;-70
2021/01/03 00:54:33;;;;;;;38.37;27.53;;;;;;;7.88;60.40;101679.00;6108362;29;20224;-71
2021/01/03 00:57:53;;;;;;;35.77;25.40;;;;;;;7.99;60.38;101676.56;6118839;29;20251;-71
2021/01/03 01:01:14;;;;;;;38.97;25.77;;;;;;;8.07;60.31;101681.00;6119115;29;20223;-70
2021/01/03 01:04:35;;;;;;;38.33;27.03;;;;;;;8.08;60.15;101684.47;6121998;29;20326;-70
2021/01/03 01:07:56;;;;;;;38.70;26.20;;;;;;;8.08;60.16;101679.28;6121214;29;20244;-70
2021/01/03 01:11:16;;;;;;;35.10;25.80;;;;;;;8.13;60.06;101687.16;6090875;29;20240;-70
2021/01/03 01:14:36;;;;;;;38.13;28.00;;;;;;;8.18;60.02;101686.38;6106377;29;20235;-70
2021/01/03 01:18:01;;;;;;;36.63;28.13;;;;;;;8.06;60.21;101686.16;6116667;29;20504;-71
2021/01/03 01:21:22;;;;;;;45.13;29.90;;;;;;;8.01;60.28;101682.66;6117433;29;20239;-70
2021/01/03 01:24:43;;;;;;;37.00;26.87;;;;;;;8.06;60.15;101675.78;6118020;29;20239;-70
2021/01/03 01:28:03;;;;;;;37.97;26.83;;;;;;;8.01;60.20;101683.53;6123990;28;20363;-70
2021/01/03 01:31:24;;;;;;;39.43;27.17;;;;;;;8.02;60.14;101684.38;6121829;29;20224;-70
2021/01/03 01:34:45;;;;;;;42.43;28.93;;;;;;;7.88;60.58;101681.59;6118334;29;20235;-70
2021/01/03 01:38:06;;;;;;;37.73;26.50;;;;;;;7.99;60.38;101692.13;6122027;29;20228;-69
2021/01/03 01:41:26;;;;;;;36.00;24.73;;;;;;;8.06;60.00;101684.47;6114736;29;20236;-71
2021/01/03 01:44:47;;;;;;;36.77;26.93;;;;;;;8.11;59.79;101684.53;6112686;29;20331;-70
2021/01/03 01:48:12;;;;;;;32.87;23.63;;;;;;;8.14;59.59;101689.75;6118260;29;20325;-70
2021/01/03 01:51:36;;;;;;;38.57;26.90;;;;;;;8.12;59.97;101682.81;6118249;29;20233;-69
2021/01/03 01:55:01;;;;;;;39.70;28.60;;;;;;;8.16;59.44;101682.00;6113575;29;20235;-70
2021/01/03 01:58:31;;;;;;;35.13;26.13;;;;;;;8.04;59.96;101683.53;6115856;29;20326;-71
2021/01/03 02:02:06;;;;;;;38.67;27.20;;;;;;;8.04;59.98;101686.16;6119661;29;20231;-70
2021/01/03 02:05:32;;;;;;;40.90;27.60;;;;;;;8.07;59.87;101681.00;6115644;29;20240;-69
2021/01/03 02:08:57;;;;;;;38.63;28.53;;;;;;;8.05;59.97;101685.31;6117763;29;20235;-70
2021/01/03 02:12:25;;;;;;;34.93;26.50;;;;;;;8.06;59.79;101676.69;6122562;29;20679;-70
2021/01/03 02:15:46;;;;;;;33.73;26.43;;;;;;;7.97;59.75;101676.53;6121053;29;20243;-70
2021/01/03 02:19:14;;;;;;;37.10;26.60;;;;;;;7.94;59.89;101671.28;6118403;29;20771;-70
2021/01/03 02:22:41;;;;;;;34.83;25.13;;;;;;;7.94;59.84;101683.41;6121184;29;20601;-70
2021/01/03 02:26:04;;;;;;;41.30;28.40;;;;;;;7.92;60.27;101685.97;6115770;29;20231;-70
2021/01/03 02:29:26;;;;;;;38.87;27.77;;;;;;;7.94;60.03;101686.84;6117413;29;20232;-69
2021/01/03 02:32:49;;;;;;;42.50;28.83;;;;;;;7.93;59.98;101695.50;6120032;29;20239;-70
2021/01/03 02:36:15;;;;;;;37.07;27.87;;;;;;;7.90;60.06;101690.25;6116600;29;20236;-70
2021/01/03 02:39:45;;;;;;;36.90;26.00;;;;;;;7.88;59.91;101694.56;6117508;29;20232;-70
2021/01/03 02:43:06;;;;;;;35.47;25.33;;;;;;;7.81;60.16;101700.47;6112154;29;20266;-70
2021/01/03 02:46:27;;;;;;;38.27;26.17;;;;;;;7.84;60.05;101696.22;6107758;29;20240;-70
2021/01/03 02:49:52;;;;;;;40.10;26.87;;;;;;;7.83;60.09;101693.59;6118245;29;20235;-70
2021/01/03 02:53:13;;;;;;;37.20;29.00;;;;;;;7.77;60.20;101696.09;6116317;29;20235;-70
2021/01/03 02:56:33;;;;;;;38.37;26.27;;;;;;;7.82;60.02;101691.88;6100059;29;20315;-70
2021/01/03 02:59:55;;;;;;;39.23;26.53;;;;;;;7.78;60.19;101684.88;6121906;29;20224;-70
2021/01/03 03:03:15;;;;;;;33.70;26.70;;;;;;;7.77;60.50;101685.72;6112572;29;20236;-70
2021/01/03 03:06:36;;;;;;;39.10;27.13;;;;;;;7.73;60.37;101686.53;6119614;29;20232;-71
2021/01/03 03:09:56;;;;;;;34.07;24.77;;;;;;;7.76;60.53;101687.44;6120799;29;20737;-71
2021/01/03 03:13:17;;;;;;;41.00;27.30;;;;;;;7.76;60.60;101691.78;6113293;29;20327;-70
2021/01/03 03:16:38;;;;;;;36.53;25.73;;;;;;;7.72;60.66;101689.97;6102903;29;20231;-70
2021/01/03 03:19:58;;;;;;;41.20;29.07;;;;;;;7.80;60.76;101680.59;6118575;29;20239;-70
2021/01/03 03:23:19;;;;;;;34.23;24.93;;;;;;;7.69;60.87;101688.19;6122730;29;20235;-70
2021/01/03 03:26:39;;;;;;;40.80;27.20;;;;;;;7.66;60.92;101691.59;6115861;29;20833;-71
2021/01/03 03:30:00;;;;;;;38.80;27.37;;;;;;;7.71;60.99;101683.91;6111971;29;20307;-70
2021/01/03 03:33:21;;;;;;;35.50;25.57;;;;;;;7.64;61.24;101690.72;6116753;29;20547;-70
2021/01/03 03:36:42;;;;;;;35.57;25.47;;;;;;;7.64;61.33;101688.13;6102425;29;20621;-71
2021/01/03 03:40:04;;;;;;;36.90;24.67;;;;;;;7.52;61.51;101680.09;6106271;29;20236;-70
2021/01/03 03:43:24;;;;;;;37.63;27.00;;;;;;;7.69;61.02;101686.47;6120503;29;20625;-70
2021/01/03 03:46:50;;;;;;;36.23;23.27;;;;;;;7.17;62.30;101675.16;6108794;29;20216;-70
2021/01/03 03:50:16;;;;;;;34.30;22.83;;;;;;;7.19;62.18;101676.09;6106841;29;20240;-69
2021/01/03 03:53:37;;;;;;;33.03;24.10;;;;;;;7.49;61.79;101669.72;6104020;29;20771;-70
2021/01/03 03:57:01;;;;;;;33.23;23.17;;;;;;;7.64;61.27;101676.88;6128015;29;20635;-70
2021/01/03 04:00:24;;;;;;;33.77;25.37;;;;;;;7.69;61.12;101681.28;6116273;29;20243;-70
2021/01/03 04:03:44;;;;;;;36.13;26.83;;;;;;;7.69;61.02;101676.09;6113950;29;20232;-70
2021/01/03 04:07:06;;;;;;;37.63;25.83;;;;;;;7.69;60.80;101685.59;6113596;29;20230;-70
2021/01/03 04:10:26;;;;;;;29.50;20.80;;;;;;;7.59;61.20;101684.56;6117197;29;20231;-70
2021/01/03 04:13:46;;;;;;;34.70;23.43;;;;;;;7.59;61.05;101686.28;6118318;29;20276;-70
2021/01/03 04:17:07;;;;;;;38.53;25.40;;;;;;;7.72;60.74;101679.59;6108697;29;20609;-70
2021/01/03 04:20:28;;;;;;;36.77;24.83;;;;;;;7.71;60.72;101677.84;6118302;29;20317;-69
2021/01/03 04:23:49;;;;;;;30.93;21.17;;;;;;;7.72;60.68;101669.22;6118688;29;20239;-70
2021/01/03 04:27:10;;;;;;;31.17;19.90;;;;;;;7.75;60.70;101664.06;6122871;29;20322;-70
2021/01/03 04:30:31;;;;;;;30.60;21.80;;;;;;;7.83;60.47;101672.84;6107299;29;20306;-70
2021/01/03 04:33:51;;;;;;;26.43;18.13;;;;;;;7.88;59.83;101661.69;6108335;29;20323;-70
2021/01/03 04:37:17;;;;;;;24.37;18.20;;;;;;;7.87;59.59;101659.06;6116063;29;20685;-71
2021/01/03 04:40:38;;;;;;;25.30;18.10;;;;;;;7.87;59.59;101664.25;6111596;29;20231;-71
2021/01/03 04:44:02;;;;;;;25.93;17.43;;;;;;;7.85;59.50;101671.16;6105536;29;20220;-70
2021/01/03 04:47:26;;;;;;;25.47;18.90;;;;;;;7.81;59.65;101669.34;6111616;29;20228;-70
2021/01/03 04:51:18;;;;;;;24.03;17.63;;;;;;;7.84;59.54;101672.00;6118064;29;21241;-71
2021/01/03 04:54:50;;;;;;;22.30;17.23;;;;;;;7.88;59.81;101676.41;6108151;29;20236;-70
2021/01/03 04:58:29;;;;;;;27.17;16.77;;;;;;;7.97;59.54;101679.13;6121183;29;20228;-70
2021/01/03 05:02:36;;;;;;;25.60;17.33;;;;;;;7.94;59.57;101689.44;6111027;29;20235;-71
2021/01/03 05:06:01;;;;;;;26.47;18.50;;;;;;;7.94;59.51;101692.03;6117875;29;20232;-71
2021/01/03 05:09:22;;;;;;;22.60;15.67;;;;;;;7.55;60.30;101690.53;6112551;29;20232;-71
2021/01/03 05:12:57;;;;;;;24.77;18.60;;;;;;;7.58;60.17;101688.03;6117700;29;20313;-72
2021/01/03 05:16:19;;;;;;;23.97;17.00;;;;;;;7.64;60.27;101685.53;6123516;29;20507;-70
2021/01/03 05:19:39;;;;;;;21.10;14.90;;;;;;;7.62;59.76;101687.22;6121010;29;20274;-69
2021/01/03 05:23:14;;;;;;;24.50;16.37;;;;;;;7.51;60.02;101699.13;6111729;29;20542;-70
2021/01/03 05:26:37;;;;;;;18.20;13.77;;;;;;;7.71;59.66;101698.59;6104513;29;20616;-69
2021/01/03 05:30:16;;;;;;;19.63;14.87;;;;;;;7.78;58.91;101701.31;6115660;29;20235;-69
2021/01/03 05:33:48;;;;;;;16.27;13.37;;;;;;;7.67;58.99;101698.53;6118019;29;20614;-70
2021/01/03 05:37:12;;;;;;;19.77;13.90;;;;;;;7.61;59.65;101708.78;6120965;29;20629;-70
2021/01/03 05:40:35;;;;;;;17.97;13.60;;;;;;;7.69;59.58;101706.34;6115337;29;20232;-70
2021/01/03 05:44:09;;;;;;;18.53;15.43;;;;;;;7.75;59.53;101709.03;6113909;29;20239;-69
2021/01/03 05:47:33;;;;;;;16.73;14.43;;;;;;;7.82;59.49;101722.97;6120475;29;20323;-70
2021/01/03 05:50:55;;;;;;;18.97;15.90;;;;;;;7.90;59.25;101721.38;6117868;29;20536;-70
2021/01/03 05:54:18;;;;;;;20.80;15.43;;;;;;;7.69;59.85;101722.75;6121213;29;20240;-70
2021/01/03 05:57:38;;;;;;;18.37;14.23;;;;;;;7.55;60.19;101723.38;6110484;29;20538;-70
2021/01/03 06:01:15;;;;;;;21.93;17.63;;;;;;;7.56;60.05;101717.34;6116514;29;20748;-70
2021/01/03 06:04:37;;;;;;;17.80;13.90;;;;;;;7.55;60.36;101728.56;6113276;29;20956;-70
2021/01/03 06:08:10;;;;;;;18.23;14.43;;;;;;;7.66;60.12;101732.22;6116665;29;20229;-70
2021/01/03 06:11:32;;;;;;;21.37;16.23;;;;;;;7.33;61.00;101732.47;6115693;29;20279;-70
2021/01/03 06:14:56;;;;;;;17.13;13.77;;;;;;;7.65;60.42;101741.69;6119904;29;20259;-70
2021/01/03 06:18:22;;;;;;;18.23;13.70;;;;;;;7.62;60.16;101731.28;6127030;29;20228;-70
2021/01/03 06:21:43;;;;;;;16.87;13.83;;;;;;;7.59;60.17;101736.41;6123835;29;20236;-70
2021/01/03 06:25:14;;;;;;;17.47;13.30;;;;;;;7.38;60.07;101734.28;6113095;29;20252;-70
2021/01/03 06:28:45;;;;;;;15.03;13.37;;;;;;;7.23;60.51;101731.41;6096902;29;20241;-69
2021/01/03 06:32:30;;;;;;;17.50;13.23;;;;;;;7.37;60.45;101734.28;6111864;29;20224;-70
2021/01/03 06:35:58;;;;;;;17.43;13.47;;;;;;;7.45;60.23;101743.94;6118115;29;20644;-70
2021/01/03 06:39:31;;;;;;;16.93;13.23;;;;;;;7.45;60.15;101749.13;6115300;29;20590;-70
2021/01/03 06:43:46;;;;;;;16.87;13.07;;;;;;;7.43;60.42;101747.34;6111340;29;20602;-70
2021/01/03 06:47:32;;;;;;;18.00;13.77;;;;;;;7.54;59.94;101748.44;6097130;29;20233;-70
2021/01/03 06:51:29;;;;;;;17.20;13.77;;;;;;;7.69;59.81;101755.59;6109271;29;20240;-70
2021/01/03 06:55:28;;;;;;;19.60;15.07;;;;;;;7.65;59.75;101751.22;6119932;29;20567;-70
2021/01/03 06:59:13;;;;;;;15.10;12.33;;;;;;;7.62;59.64;101757.22;6107464;29;20251;-70
2021/01/03 07:02:40;;;;;;;17.77;15.88;;;;;;;7.53;59.82;101757.03;6112560;29;21140;-69
2021/01/03 07:06:03;;;;;;;16.77;13.90;;;;;;;7.58;59.88;101752.81;6127444;29;20239;-70
2021/01/03 07:09:24;;;;;;;17.07;13.27;;;;;;;7.64;59.80;101760.72;6114337;29;20339;-69
2021/01/03 07:12:47;;;;;;;15.70;13.93;;;;;;;7.60;59.33;101758.91;6116863;29;20369;-70
2021/01/03 07:16:31;;;;;;;19.33;15.37;;;;;;;7.40;59.95;101760.25;6125004;29;20303;-70
2021/01/03 07:19:55;;;;;;;18.47;14.03;;;;;;;7.62;59.47;101762.41;6118893;29;20325;-70
2021/01/03 07:23:19;;;;;;;16.80;13.87;;;;;;;7.61;59.44;101755.44;6120849;29;20239;-70
2021/01/03 07:26:40;;;;;;;14.03;12.43;;;;;;;7.33;59.97;101759.28;6118548;29;20239;-70
2021/01/03 07:30:39;;;;;;;17.93;13.20;;;;;;;7.47;59.76;101755.22;6120921;29;20260;-70
2021/01/03 07:34:04;;;;;;;15.07;13.47;;;;;;;7.67;59.26;101755.56;6040625;29;20231;-71
2021/01/03 07:37:26;;;;;;;15.50;13.13;;;;;;;7.72;58.94;101768.63;6111771;29;20307;-71
2021/01/03 07:40:54;;;;;;;17.67;13.73;;;;;;;7.76;58.64;101762.66;6117506;29;20669;-70
2021/01/03 07:44:31;;;;;;;14.77;12.47;;;;;;;7.59;57.98;101770.13;6108504;29;20232;-71
2021/01/03 07:47:54;;;;;;;17.20;13.57;;;;;;;7.73;58.46;101772.09;6120033;29;20228;-70
2021/01/03 07:51:41;;;;;;;17.87;13.03;;;;;;;7.72;58.23;101767.75;6119748;29;20801;-69
2021/01/03 07:55:01;;;;;;;13.83;11.70;;;;;;;7.84;57.96;101773.16;6117438;29;20240;-70
2021/01/03 07:58:23;;;;;;;15.63;13.10;;;;;;;7.65;57.68;101762.44;6121324;29;20860;-70
2021/01/03 08:01:47;;;;;;;14.50;11.70;;;;;;;7.63;57.91;101763.25;6115118;29;20637;-70
2021/01/03 08:05:09;;;;;;;17.60;11.23;;;;;;;7.66;57.84;101771.13;6114712;29;20514;-71
2021/01/03 08:08:30;;;;;;;13.80;11.47;;;;;;;7.65;57.67;101767.63;6122560;29;20318;-70
2021/01/03 08:11:54;;;;;;;13.63;11.57;;;;;;;7.41;57.79;101774.97;6117168;29;20235;-71
2021/01/03 08:15:25;;;;;;;12.50;10.83;;;;;;;7.45;58.16;101769.00;6111332;29;20634;-71
2021/01/03 08:18:54;;;;;;;13.00;10.50;;;;;;;7.16;58.83;101769.28;6120733;29;20690;-71
2021/01/03 08:22:23;;;;;;;14.97;12.60;;;;;;;7.14;58.57;101768.38;6126792;29;20609;-70
2021/01/03 08:25:45;;;;;;;13.83;11.90;;;;;;;7.15;58.76;101758.88;6120573;29;20231;-70
2021/01/03 08:29:15;;;;;;;15.87;12.70;;;;;;;7.33;58.61;101766.16;6123101;29;20318;-71
2021/01/03 08:32:39;;;;;;;13.30;10.97;;;;;;;7.47;58.50;101769.91;6122770;29;20295;-70
2021/01/03 08:36:14;;;;;;;14.60;12.17;;;;;;;7.41;57.94;101780.16;6131308;29;20247;-70
2021/01/03 08:39:34;;;;;;;13.70;11.93;;;;;;;7.33;58.80;101773.91;6125517;29;20235;-70
2021/01/03 08:43:01;;;;;;;11.43;10.30;;;;;;;7.40;58.53;101786.16;6127883;29;20228;-71
2021/01/03 08:46:26;;;;;;;13.03;10.83;;;;;;;7.41;58.40;101773.25;6119464;29;20224;-70
2021/01/03 08:49:47;;;;;;;13.97;11.43;;;;;;;7.52;58.22;101782.94;6123342;29;20224;-70
2021/01/03 08:53:16;;;;;;;10.93;9.47;;;;;;;7.57;58.16;101783.91;6124078;29;20240;-70
2021/01/03 08:56:45;;;;;;;13.23;10.50;;;;;;;7.43;58.12;101781.91;6129084;29;20230;-70
2021/01/03 09:00:12;;;;;;;12.27;11.07;;;;;;;7.22;58.59;101787.53;6123338;29;20290;-70
2021/01/03 09:03:34;;;;;;;11.17;10.07;;;;;;;7.21;58.50;101785.81;6114857;29;20314;-70
2021/01/03 09:06:58;;;;;;;11.57;9.97;;;;;;;7.23;58.42;101786.72;6121083;29;20272;-70
2021/01/03 09:10:26;;;;;;;10.90;9.77;;;;;;;7.34;58.42;101791.22;6129335;29;20227;-71
2021/01/03 09:13:49;;;;;;;12.93;10.03;;;;;;;7.33;58.36;101800.72;6116513;29;20246;-70
2021/01/03 09:17:16;;;;;;;10.10;9.07;;;;;;;7.46;58.04;101799.22;6122436;29;20235;-70
2021/01/03 09:20:41;;;;;;;12.67;10.57;;;;;;;7.42;57.90;101800.03;6118596;29;20493;-69
2021/01/03 09:24:05;;;;;;;11.03;8.43;;;;;;;7.44;57.82;101801.81;6118725;29;20519;-70
2021/01/03 09:27:28;;;;;;;10.10;9.10;;;;;;;7.46;57.87;101807.00;6114829;29;20239;-70
2021/01/03 09:30:48;;;;;;;9.47;8.50;;;;;;;7.44;57.53;101799.22;6122115;29;20228;-71
2021/01/03 09:34:12;;;;;;;8.73;7.07;;;;;;;7.44;57.14;101803.50;6115653;29;20236;-69
2021/01/03 09:37:36;;;;;;;9.93;7.90;;;;;;;8.52;55.27;101800.25;6089881;29;20609;-69
2021/01/03 09:41:09;;;;;;;7.57;6.83;;;;;;;10.13;51.10;101799.53;6118921;29;20247;-69
2021/01/03 09:44:41;;;;;;;7.70;6.93;;;;;;;11.33;48.31;101789.84;6119433;29;20754;-69
2021/01/03 09:48:02;;;;;;;8.03;5.70;;;;;;;12.40;46.32;101788.25;6117572;29;20273;-70
2021/01/03 09:51:32;;;;;;;5.10;4.63;;;;;;;12.48;43.57;101786.47;6118547;29;20589;-70
2021/01/03 09:54:59;;;;;;;5.63;5.05;;;;;;;12.79;44.41;101786.44;6126642;29;20236;-70
2021/01/03 09:58:21;;;;;;;5.35;4.85;;;;;;;12.85;43.56;101785.53;6120689;29;20228;-70
2021/01/03 10:01:42;;;;;;;4.20;3.90;;;;;;;13.19;43.03;101771.47;6105169;29;20236;-70
2021/01/03 10:05:05;;;;;;;4.35;3.95;;;;;;;13.66;42.60;101771.25;6109819;29;20231;-71
2021/01/03 10:08:28;;;;;;;3.70;3.40;;;;;;;13.77;40.92;101764.19;6111998;29;20227;-71
2021/01/03 10:11:50;;;;;;;4.03;3.63;;;;;;;14.26;40.71;101766.38;6119926;29;20516;-70
2021/01/03 10:15:14;;;;;;;2.78;2.58;;;;;;;14.38;40.02;101781.13;6115780;28;20235;-70
2021/01/03 10:18:37;;;;;;;4.60;3.22;;;;;;;14.46;38.18;101768.84;6118571;29;20236;-70
2021/01/03 10:21:58;;;;;;;3.28;2.97;;;;;;;14.63;39.23;101768.66;6120662;29;20276;-70
2021/01/03 10:25:19;;;;;;;3.83;3.13;;;;;;;14.21;38.26;101765.59;6124637;29;20330;-69
2021/01/03 10:28:39;;;;;;;3.03;2.83;;;;;;;13.88;39.72;101771.94;6094871;29;20236;-70
2021/01/03 10:32:00;;;;;;;3.50;2.35;;;;;;;13.69;39.74;101756.38;6124031;29;20335;-70
2021/01/03 10:35:20;;;;;;;3.28;2.97;;;;;;;13.81;40.10;101762.41;6107146;29;20637;-69
2021/01/03 10:38:40;;;;;;;3.17;2.88;;;;;;;13.36;40.24;101760.94;6116422;29;20236;-70
2021/01/03 10:42:04;;;;;;;2.97;2.70;;;;;;;12.98;41.66;101756.72;6119878;29;20531;-70
2021/01/03 10:45:25;;;;;;;3.10;2.80;;;;;;;12.34;42.23;101773.44;6117283;29;20235;-71
2021/01/03 10:48:45;;;;;;;3.90;3.60;;;;;;;11.64;44.99;101782.09;6118191;29;20643;-70
2021/01/03 10:52:06;;;;;;;2.30;2.10;;;;;;;10.79;45.41;101768.75;6120224;29;20235;-70
2021/01/03 10:55:27;;;;;;;2.17;2.00;;;;;;;10.30;47.09;101771.06;6114506;29;20610;-70
2021/01/03 10:58:48;;;;;;;2.53;2.33;;;;;;;9.91;47.75;101775.06;6105676;29;20239;-70
2021/01/03 11:02:08;;;;;;;3.43;2.70;;;;;;;9.71;48.03;101768.78;6118337;29;20339;-70
2021/01/03 11:05:29;;;;;;;3.03;2.80;;;;;;;9.77;48.89;101763.63;6119194;29;20319;-71
2021/01/03 11:08:49;;;;;;;2.20;2.00;;;;;;;9.91;48.78;101759.44;6114157;29;20224;-71
2021/01/03 11:12:12;;;;;;;2.80;2.60;;;;;;;9.54;49.57;101758.19;6119922;29;20240;-71
2021/01/03 11:15:34;;;;;;;3.23;2.37;;;;;;;9.65;49.15;101753.97;6118595;29;20787;-71
2021/01/03 11:18:54;;;;;;;2.83;2.30;;;;;;;9.29;49.88;101760.56;6109110;29;20228;-71
2021/01/03 11:22:17;;;;;;;2.83;2.40;;;;;;;9.27;49.99;101757.94;6113232;29;20228;-70
2021/01/03 11:25:38;;;;;;;3.13;2.83;;;;;;;8.85;50.20;101748.75;6115231;29;20236;-70
2021/01/03 11:28:59;;;;;;;4.00;2.27;;;;;;;9.05;50.30;101750.72;6117962;29;20239;-71
2021/01/03 11:32:23;;;;;;;2.43;2.13;;;;;;;8.85;50.39;101763.47;6115658;29;20326;-70
2021/01/03 11:35:43;;;;;;;2.30;2.10;;;;;;;8.85;50.80;101748.75;6123429;29;20224;-70
2021/01/03 11:39:06;;;;;;;2.73;2.53;;;;;;;8.91;50.50;101745.38;6122611;29;20255;-69
2021/01/03 11:42:29;;;;;;;2.60;1.97;;;;;;;8.65;50.63;101747.63;6120835;29;20236;-70
2021/01/03 11:45:50;;;;;;;2.70;2.03;;;;;;;8.61;51.21;101751.91;6102780;29;20232;-70
2021/01/03 11:49:12;;;;;;;3.27;2.97;;;;;;;8.43;51.21;101741.25;6119327;29;20314;-70
2021/01/03 11:52:32;;;;;;;3.13;1.53;;;;;;;8.90;64.50;101729.75;6115148;29;20224;-74
2021/01/03 11:55:53;;;;;;;2.60;2.40;;;;;;;9.51;59.75;101730.44;6119857;29;20240;-74
2021/01/03 11:59:15;;;;;;;2.97;2.50;;;;;;;9.26;52.90;101737.97;6098903;29;20241;-70
2021/01/03 12:02:35;;;;;;;3.33;2.07;;;;;;;8.61;52.31;101730.28;6119910;29;20709;-70
2021/01/03 12:05:57;;;;;;;2.60;2.40;;;;;;;8.27;52.57;101732.34;6118549;29;20877;-70
2021/01/03 12:09:17;;;;;;;2.73;2.53;;;;;;;8.45;52.69;101732.66;6116701;29;20331;-70
2021/01/03 12:12:38;;;;;;;3.73;2.40;;;;;;;8.24;52.08;101727.13;6117190;29;20326;-71
2021/01/03 12:15:58;;;;;;;4.20;2.37;;;;;;;8.68;52.45;101729.47;6119027;29;20220;-70
2021/01/03 12:19:19;;;;;;;2.87;2.37;;;;;;;8.27;52.65;101722.81;6117289;29;20581;-70
2021/01/03 12:22:40;;;;;;;6.20;2.40;;;;;;;8.57;52.33;101725.84;6118272;29;20232;-71
2021/01/03 12:26:01;;;;;;;2.77;2.40;;;;;;;8.43;51.85;101723.97;6114117;29;20256;-70
2021/01/03 12:29:23;;;;;;;2.57;2.37;;;;;;;8.64;52.30;101730.28;6113505;29;20562;-71
2021/01/03 12:32:44;;;;;;;2.73;2.40;;;;;;;8.28;52.33;101718.53;6117935;29;20844;-70
2021/01/03 12:36:05;;;;;;;2.33;2.13;;;;;;;8.22;52.69;101729.69;6116055;29;20243;-69
2021/01/03 12:39:27;;;;;;;2.37;2.17;;;;;;;8.16;52.09;101733.88;6103417;29;20240;-69
2021/01/03 12:42:48;;;;;;;3.37;2.20;;;;;;;7.86;52.89;101729.97;6115063;29;20240;-70
2021/01/03 12:46:08;;;;;;;4.67;2.70;;;;;;;7.92;53.02;101732.66;6117291;29;20232;-70
2021/01/03 12:49:29;;;;;;;5.70;2.70;;;;;;;7.78;52.47;101726.38;6116209;29;20251;-71
2021/01/03 12:52:50;;;;;;;3.30;2.57;;;;;;;8.02;52.62;101721.56;6108950;29;20235;-69
2021/01/03 12:56:11;;;;;;;3.30;3.00;;;;;;;8.16;52.35;101718.31;6116355;29;20240;-70
2021/01/03 12:59:32;;;;;;;3.23;2.57;;;;;;;7.99;52.59;101721.53;6112980;29;20834;-69
2021/01/03 13:02:52;;;;;;;3.07;2.73;;;;;;;8.09;52.21;101720.81;6113777;29;20338;-70
2021/01/03 13:06:13;;;;;;;4.30;2.30;;;;;;;7.96;52.66;101721.47;6116467;29;20334;-70
2021/01/03 13:09:34;;;;;;;3.53;2.33;;;;;;;7.65;52.51;101715.78;6112416;29;20240;-70
2021/01/03 13:12:55;;;;;;;6.27;2.83;;;;;;;7.58;52.09;101724.31;6120001;29;20235;-70
2021/01/03 13:16:16;;;;;;;2.83;2.63;;;;;;;7.45;52.24;101724.94;6120398;29;20244;-69
2021/01/03 13:19:37;;;;;;;3.47;3.17;;;;;;;7.54;51.97;101721.63;6121283;29;20228;-70
2021/01/03 13:22:57;;;;;;;5.30;2.93;;;;;;;7.57;51.97;101732.06;6115837;29;20420;-70
2021/01/03 13:26:19;;;;;;;3.03;2.77;;;;;;;7.51;51.57;101724.19;6109642;29;20911;-70
2021/01/03 13:29:41;;;;;;;2.70;2.50;;;;;;;7.46;51.60;101727.56;6117769;29;20232;-69
2021/01/03 13:33:01;;;;;;;4.33;3.20;;;;;;;7.49;51.41;101734.50;6123297;29;20228;-71
2021/01/03 13:36:24;;;;;;;3.10;2.80;;;;;;;7.44;51.96;101731.84;6120942;29;20319;-69
2021/01/03 13:39:45;;;;;;;5.73;3.43;;;;;;;7.51;52.09;101731.94;6112016;29;20232;-69
2021/01/03 13:43:05;;;;;;;4.13;3.73;;;;;;;7.69;51.26;101725.34;6124077;29;20235;-70
2021/01/03 13:46:27;;;;;;;3.30;3.00;;;;;;;7.55;51.95;101718.19;6120369;29;20589;-70
2021/01/03 13:49:47;;;;;;;4.07;3.37;;;;;;;7.60;51.58;101722.63;6102149;29;20314;-70
2021/01/03 13:53:08;;;;;;;4.37;3.97;;;;;;;7.83;51.32;101719.53;6118128;29;20251;-69
2021/01/03 13:56:30;;;;;;;4.23;2.93;;;;;;;7.72;51.47;101710.72;6117335;29;20248;-69
2021/01/03 13:59:50;;;;;;;4.53;3.77;;;;;;;7.72;51.91;101711.59;6116746;29;20322;-70
2021/01/03 14:03:12;;;;;;;3.90;3.37;;;;;;;7.77;51.77;101716.84;6120181;29;20239;-71
2021/01/03 14:06:33;;;;;;;3.90;3.50;;;;;;;7.91;51.36;101711.88;6117257;29;20260;-69
2021/01/03 14:09:53;;;;;;;3.83;3.07;;;;;;;7.89;51.19;101719.66;6115219;29;20240;-71
2021/01/03 14:13:14;;;;;;;4.70;4.30;;;;;;;7.79;52.01;101722.91;6111639;29;20618;-70
2021/01/03 14:16:34;;;;;;;4.87;3.13;;;;;;;7.89;63.03;101719.66;6121486;29;20228;-73
2021/01/03 14:19:56;;;;;;;6.07;4.10;;;;;;;8.87;63.02;101707.22;6117933;29;20240;-74
2021/01/03 14:23:16;;;;;;;5.23;4.33;;;;;;;9.13;54.62;101706.63;6105107;29;20315;-70
2021/01/03 14:26:38;;;;;;;4.63;4.00;;;;;;;8.67;52.17;101714.78;6121291;29;20239;-70
2021/01/03 14:29:59;;;;;;;5.03;4.10;;;;;;;8.18;51.69;101708.84;6122574;29;20236;-70
2021/01/03 14:33:22;;;;;;;5.73;5.13;;;;;;;8.16;51.57;101714.03;6118674;29;20232;-70
2021/01/03 14:36:45;;;;;;;6.50;4.53;;;;;;;7.95;51.65;101704.19;6117000;29;20224;-70
2021/01/03 14:40:08;;;;;;;7.13;5.43;;;;;;;7.69;51.83;101709.78;6118566;29;20281;-70
2021/01/03 14:43:33;;;;;;;5.43;4.90;;;;;;;7.57;52.37;101711.31;6108866;29;20231;-71
2021/01/03 14:47:03;;;;;;;7.33;5.77;;;;;;;7.61;51.93;101703.59;6120259;29;20841;-70
2021/01/03 14:50:37;;;;;;;11.33;7.07;;;;;;;7.62;52.12;101707.97;6111356;29;20616;-71
2021/01/03 14:54:23;;;;;;;6.80;6.00;;;;;;;7.59;51.95;101696.66;6121899;29;20634;-70
2021/01/03 14:57:44;;;;;;;8.97;6.80;;;;;;;7.49;52.30;101703.41;6106467;29;20602;-71
2021/01/03 15:01:08;;;;;;;8.45;6.88;;;;;;;7.56;52.01;101713.03;6118839;29;21037;-70
2021/01/03 15:04:34;;;;;;;8.93;5.30;;;;;;;7.51;52.33;101711.22;6119913;29;20255;-70
2021/01/03 15:08:01;;;;;;;7.23;5.53;;;;;;;7.55;52.17;101708.69;6120619;29;20256;-70
2021/01/03 15:11:23;;;;;;;8.57;6.20;;;;;;;7.51;52.42;101708.63;6120605;29;20232;-71
2021/01/03 15:14:46;;;;;;;8.13;7.03;;;;;;;7.35;53.06;101707.44;6105533;29;20228;-70
2021/01/03 15:18:27;;;;;;;7.40;6.50;;;;;;;7.45;52.66;101706.78;6114281;29;20529;-71
2021/01/03 15:21:49;;;;;;;10.13;7.37;;;;;;;7.61;52.79;101702.75;6102909;29;20228;-70
2021/01/03 15:25:15;;;;;;;8.07;7.03;;;;;;;7.45;52.88;101702.47;6120271;29;20236;-71
2021/01/03 15:28:41;;;;;;;12.80;7.90;;;;;;;7.47;52.82;101705.09;6088324;29;20239;-70
2021/01/03 15:32:07;;;;;;;9.43;8.00;;;;;;;7.33;52.69;101704.84;6113257;29;20323;-71
2021/01/03 15:35:33;;;;;;;12.00;8.30;;;;;;;7.49;52.70;101706.00;6108549;29;20231;-70
2021/01/03 15:38:53;;;;;;;9.60;7.63;;;;;;;7.45;52.88;101709.38;6115283;29;20240;-70
2021/01/03 15:42:16;;;;;;;11.77;7.73;;;;;;;7.37;52.92;101709.25;6108365;29;20244;-70
2021/01/03 15:45:45;;;;;;;11.47;8.57;;;;;;;7.46;53.94;101705.94;6128288;29;20235;-70